KFTK/FTK METAR and TAF weather

Enter ICAO airport designator
Station Type Date Time Source
KFTK METAR 2024/07/24 11:24 UTC NOAA

KFTK 241124Z AUTO 00000KT 3SM BR CLR 20/20 A3013 RMK AO2 SLP199 $


Station Type Date Time Source
KFTK Decoded METAR 2024/07/24 11:24 UTC NOAA

Fort Knox, KY, United States (KFTK) 37-54N 085-58W 230M
Jul 24, 2024 - 07:24 AM EDT / 2024.07.24 1124 UTC
Wind: Calm:0
Visibility: 3 mile(s):0
Sky conditions: clear
Weather: mist
Temperature: 68 F (20 C)
Dew Point: 68 F (20 C)
Relative Humidity: 100%
Pressure (altimeter): 30.13 in. Hg (1020 hPa)
ob: KFTK 241124Z AUTO 00000KT 3SM BR CLR 20/20 A3013 RMK AO2 SLP199
cycle: 11

Station Type Date Time Source
KFTK TAF 2024/07/24 11:04 UTC NOAA